Time;durP1;ratioP1;P1;durP2;ratioP2;P2;SDS_P1;SDS_P2;PMS_P1;PMS_P2;Temp;Humidity;BMP_temperature;BMP_pressure;BME280_temperature;BME280_humidity;BME280_pressure;Samples;Min_cycle;Max_cycle;Signal;HPM_P1;HPM_P2
2022/02/12 00:01:06;;;;;;;12.20;7.50;;;3.20;99.90;;;;;;4960895;28;20034;-93
2022/02/12 00:03:33;;;;;;;12.23;7.72;;;3.20;99.90;;;;;;4961049;28;20482;-93
2022/02/12 00:05:59;;;;;;;14.30;8.65;;;3.20;99.90;;;;;;4961033;28;20058;-93
2022/02/12 00:08:25;;;;;;;15.13;8.75;;;3.10;99.90;;;;;;4960902;28;20054;-94
2022/02/12 00:10:51;;;;;;;14.27;8.55;;;3.10;99.90;;;;;;4960964;28;20023;-93
2022/02/12 00:13:17;;;;;;;15.45;8.43;;;3.10;99.90;;;;;;4961051;28;20026;-94
2022/02/12 00:15:43;;;;;;;16.63;9.77;;;3.00;99.90;;;;;;4960429;28;20030;-94
2022/02/12 00:18:10;;;;;;;16.75;9.63;;;3.10;99.90;;;;;;4960734;28;20041;-94
2022/02/12 00:20:36;;;;;;;17.10;9.85;;;3.10;99.90;;;;;;4960478;28;20515;-93
2022/02/12 00:23:02;;;;;;;17.70;9.70;;;3.10;99.90;;;;;;4960797;28;20053;-94
2022/02/12 00:25:28;;;;;;;15.30;9.02;;;3.10;99.90;;;;;;4961231;28;20026;-94
2022/02/12 00:27:53;;;;;;;16.45;9.23;;;3.00;99.90;;;;;;4961046;28;20050;-93
2022/02/12 00:30:19;;;;;;;18.92;10.05;;;3.10;99.90;;;;;;4960534;28;20023;-93
2022/02/12 00:32:45;;;;;;;16.05;10.30;;;3.00;99.90;;;;;;4961081;28;20027;-94
2022/02/12 00:35:11;;;;;;;16.00;9.68;;;2.90;99.90;;;;;;4960547;28;20470;-94
2022/02/12 00:37:36;;;;;;;17.98;10.13;;;2.90;99.90;;;;;;4960738;28;20023;-93
2022/02/12 00:40:04;;;;;;;16.83;10.48;;;2.90;99.90;;;;;;4960886;28;20113;-94
2022/02/12 00:42:29;;;;;;;16.85;9.73;;;2.90;99.90;;;;;;4960381;28;20033;-93
2022/02/12 00:44:55;;;;;;;17.98;10.57;;;2.80;99.90;;;;;;4960149;28;20031;-93
2022/02/12 00:47:21;;;;;;;18.08;10.98;;;2.80;99.90;;;;;;4960470;28;20027;-94
2022/02/12 00:49:47;;;;;;;17.48;10.30;;;2.80;99.90;;;;;;4960350;28;20027;-93
2022/02/12 00:52:13;;;;;;;20.52;11.23;;;2.70;99.90;;;;;;4960480;28;20035;-93
2022/02/12 00:54:40;;;;;;;17.35;11.00;;;2.70;99.90;;;;;;4960170;28;20073;-94
2022/02/12 00:57:06;;;;;;;18.92;11.13;;;2.70;99.90;;;;;;4960438;28;20030;-94
2022/02/12 00:59:32;;;;;;;17.35;9.63;;;2.70;99.90;;;;;;4960288;28;20061;-93
2022/02/12 01:01:58;;;;;;;16.30;9.80;;;2.80;99.90;;;;;;4960080;28;20085;-94
2022/02/12 01:04:23;;;;;;;19.35;10.55;;;2.80;99.90;;;;;;4959853;28;20101;-94
2022/02/12 01:06:49;;;;;;;17.83;9.70;;;2.80;99.90;;;;;;4960024;28;20034;-93
2022/02/12 01:09:15;;;;;;;17.73;9.57;;;2.90;99.90;;;;;;4960479;28;20528;-94
2022/02/12 01:11:41;;;;;;;16.38;9.57;;;2.90;99.90;;;;;;4960098;28;20026;-93
2022/02/12 01:14:06;;;;;;;17.52;10.07;;;2.90;99.90;;;;;;4960417;28;20049;-93
2022/02/12 01:16:32;;;;;;;17.77;9.98;;;3.00;99.90;;;;;;4960225;28;20031;-94
2022/02/12 01:18:58;;;;;;;22.67;10.20;;;3.00;99.90;;;;;;4959768;28;20085;-93
2022/02/12 01:21:24;;;;;;;20.17;11.27;;;3.10;99.90;;;;;;4959920;28;20041;-93
2022/02/12 01:23:50;;;;;;;24.95;12.30;;;3.10;99.90;;;;;;4960056;28;20046;-94
2022/02/12 01:26:16;;;;;;;39.72;17.52;;;3.10;99.90;;;;;;4960131;28;20081;-93
2022/02/12 01:28:42;;;;;;;31.65;14.88;;;3.10;99.90;;;;;;4958930;28;20033;-93
2022/02/12 01:31:08;;;;;;;32.35;16.00;;;3.10;99.90;;;;;;4959461;28;20050;-94
2022/02/12 01:33:34;;;;;;;26.83;14.23;;;3.10;99.90;;;;;;4959861;28;20033;-94
2022/02/12 01:35:59;;;;;;;29.90;14.35;;;3.20;99.90;;;;;;4959449;28;20390;-94
2022/02/12 01:38:28;;;;;;;28.17;14.30;;;3.20;99.90;;;;;;4960035;28;20034;-93
2022/02/12 01:40:57;;;;;;;26.38;14.07;;;3.20;99.90;;;;;;4960107;28;20382;-94
2022/02/12 01:43:23;;;;;;;26.73;15.33;;;3.20;99.90;;;;;;4959380;28;20492;-94
2022/02/12 01:45:49;;;;;;;25.77;14.82;;;3.20;99.90;;;;;;4959169;28;20054;-94
2022/02/12 01:48:15;;;;;;;24.35;14.32;;;3.20;99.90;;;;;;4959337;28;20027;-94
2022/02/12 01:50:41;;;;;;;25.42;14.40;;;3.20;99.90;;;;;;4959264;28;20114;-94
2022/02/12 01:53:07;;;;;;;24.13;14.18;;;3.20;99.90;;;;;;4959108;28;20063;-94
2022/02/12 01:55:33;;;;;;;28.20;15.30;;;3.20;99.90;;;;;;4959109;28;20030;-94
2022/02/12 01:57:58;;;;;;;24.63;14.52;;;3.20;99.90;;;;;;4959599;28;20023;-94
2022/02/12 02:00:24;;;;;;;28.83;14.43;;;3.20;99.90;;;;;;4959273;28;20520;-95
2022/02/12 02:02:50;;;;;;;24.75;14.48;;;3.20;99.90;;;;;;4959209;28;20031;-94
2022/02/12 02:05:18;;;;;;;24.33;13.25;;;3.20;99.90;;;;;;4958863;28;20042;-94
2022/02/12 02:07:44;;;;;;;26.05;14.63;;;3.20;99.90;;;;;;4959462;28;20118;-94
2022/02/12 02:10:14;;;;;;;25.33;13.57;;;3.20;99.90;;;;;;4959069;28;20023;-94
2022/02/12 02:12:39;;;;;;;29.00;14.13;;;3.20;99.90;;;;;;4958891;28;20492;-94
2022/02/12 02:15:06;;;;;;;22.88;13.30;;;3.20;99.90;;;;;;4959091;28;20221;-95
2022/02/12 02:17:32;;;;;;;22.95;12.82;;;3.20;99.90;;;;;;4959018;28;20114;-95
2022/02/12 02:19:58;;;;;;;22.35;13.57;;;3.20;99.90;;;;;;4974734;28;20042;-95
2022/02/12 02:22:46;;;;;;;26.77;14.77;;;3.20;99.90;;;;;;4958405;28;20055;-96
2022/02/12 02:25:12;;;;;;;30.27;14.82;;;3.30;99.90;;;;;;4958602;28;20035;-95
2022/02/12 02:27:38;;;;;;;29.90;16.55;;;3.30;99.90;;;;;;4958890;28;20023;-95
2022/02/12 02:30:05;;;;;;;26.33;15.55;;;3.30;99.90;;;;;;4959122;28;20022;-95
2022/02/12 02:32:31;;;;;;;36.35;18.05;;;3.30;99.90;;;;;;4958535;28;20031;-94
2022/02/12 02:34:56;;;;;;;29.27;16.67;;;3.30;99.90;;;;;;4958492;28;20022;-96
2022/02/12 02:37:23;;;;;;;25.80;15.88;;;3.30;99.90;;;;;;4958529;28;20023;-95
2022/02/12 02:39:49;;;;;;;28.00;14.18;;;3.30;99.90;;;;;;4958318;28;20028;-95
2022/02/12 02:42:15;;;;;;;35.53;16.45;;;3.30;99.90;;;;;;4958313;28;20085;-93
2022/02/12 02:44:41;;;;;;;29.05;15.20;;;3.30;99.90;;;;;;4958386;28;20469;-94
2022/02/12 02:49:52;;;;;;;35.08;17.75;;;3.30;99.90;;;;;;4975832;28;20082;-94
2022/02/12 02:57:46;;;;;;;36.20;19.40;;;3.20;99.90;;;;;;5091038;28;20455;-93
2022/02/12 03:00:13;;;;;;;36.17;19.48;;;3.20;99.90;;;;;;5090603;28;20545;-92
2022/02/12 03:02:38;;;;;;;48.13;23.83;;;3.10;99.90;;;;;;5090648;28;20028;-93
2022/02/12 03:05:05;;;;;;;44.40;22.42;;;3.20;99.90;;;;;;5090269;28;20024;-93
2022/02/12 03:07:31;;;;;;;45.58;23.02;;;3.10;99.90;;;;;;5090807;28;20088;-92
2022/02/12 03:09:56;;;;;;;48.85;25.38;;;3.10;99.90;;;;;;5090645;28;20056;-92
2022/02/12 03:12:23;;;;;;;42.55;23.48;;;3.00;99.90;;;;;;5090462;28;20032;-92
2022/02/12 03:14:49;;;;;;;45.80;24.42;;;3.10;99.90;;;;;;5090570;28;20114;-93
2022/02/12 03:17:14;;;;;;;49.00;24.60;;;3.10;99.90;;;;;;5090696;28;20036;-93
2022/02/12 03:19:40;;;;;;;45.25;24.67;;;3.10;99.90;;;;;;5090387;28;20108;-93
2022/02/12 03:22:06;;;;;;;45.97;23.70;;;3.00;99.90;;;;;;5089529;28;20028;-93
2022/02/12 03:24:31;;;;;;;40.47;22.13;;;3.10;99.90;;;;;;5090412;28;20080;-93
2022/02/12 03:26:57;;;;;;;45.90;23.75;;;3.10;99.90;;;;;;5090465;28;20033;-92
2022/02/12 03:29:22;;;;;;;50.90;25.35;;;3.20;99.90;;;;;;5090610;28;20118;-91
2022/02/12 03:31:49;;;;;;;52.90;25.75;;;3.20;99.90;;;;;;5090286;28;20119;-91
2022/02/12 03:34:15;;;;;;;50.20;25.70;;;3.20;99.90;;;;;;5090028;28;20050;-91
2022/02/12 03:36:41;;;;;;;48.10;24.02;;;3.10;99.90;;;;;;5090234;28;20028;-92
2022/02/12 03:39:07;;;;;;;49.05;25.67;;;3.10;99.90;;;;;;5090872;28;20024;-91
2022/02/12 03:41:33;;;;;;;50.30;25.23;;;3.00;99.90;;;;;;5090130;28;20025;-91
2022/02/12 03:43:58;;;;;;;55.85;27.30;;;3.00;99.90;;;;;;5089935;28;20415;-91
2022/02/12 03:46:24;;;;;;;55.63;27.13;;;2.90;99.90;;;;;;5090827;28;20024;-91
2022/02/12 03:48:50;;;;;;;59.38;28.63;;;3.00;99.90;;;;;;5089369;28;20024;-91
2022/02/12 03:51:18;;;;;;;53.10;27.35;;;3.00;99.90;;;;;;5089892;28;20089;-95
2022/02/12 03:53:45;;;;;;;55.58;26.50;;;3.00;99.90;;;;;;5089410;28;20059;-94
2022/02/12 03:56:11;;;;;;;54.15;26.65;;;3.00;99.90;;;;;;5088882;28;20509;-95
2022/02/12 03:58:36;;;;;;;52.22;25.58;;;3.10;99.90;;;;;;5089415;28;20069;-95
2022/02/12 04:01:03;;;;;;;49.22;24.38;;;3.10;99.90;;;;;;5089884;28;20115;-95
2022/02/12 04:03:28;;;;;;;54.30;26.90;;;3.10;99.90;;;;;;5090403;28;20443;-95
2022/02/12 04:05:54;;;;;;;52.05;25.35;;;3.20;99.90;;;;;;5089921;28;20032;-95
2022/02/12 04:08:21;;;;;;;54.47;26.00;;;3.20;99.90;;;;;;5080640;28;20024;-95
2022/02/12 04:10:48;;;;;;;58.67;27.58;;;3.20;99.90;;;;;;5076185;28;20033;-95
2022/02/12 04:13:14;;;;;;;53.03;26.95;;;3.30;99.90;;;;;;5076659;28;20520;-95
2022/02/12 04:15:40;;;;;;;53.33;27.92;;;3.30;99.90;;;;;;5075917;28;20056;-95
2022/02/12 04:18:10;;;;;;;51.90;26.27;;;3.40;99.90;;;;;;5075708;28;20040;-95
2022/02/12 04:20:37;;;;;;;52.57;27.77;;;3.40;99.90;;;;;;5075873;28;20020;-95
2022/02/12 04:23:02;;;;;;;57.20;27.55;;;3.40;99.90;;;;;;5075732;28;20254;-95
2022/02/12 04:25:28;;;;;;;55.90;27.25;;;3.50;99.90;;;;;;5075683;28;20028;-95
2022/02/12 04:27:54;;;;;;;51.65;27.52;;;3.50;99.90;;;;;;5075649;28;20025;-95
2022/02/12 04:30:19;;;;;;;56.72;27.83;;;3.50;99.90;;;;;;5075556;28;20024;-94
2022/02/12 04:32:46;;;;;;;55.03;27.80;;;3.60;99.90;;;;;;5075696;28;20027;-94
2022/02/12 04:35:13;;;;;;;58.17;28.75;;;3.60;99.90;;;;;;5076150;28;20382;-95
2022/02/12 04:37:39;;;;;;;52.67;27.52;;;3.60;99.90;;;;;;5075921;28;20142;-96
2022/02/12 04:40:05;;;;;;;52.50;26.75;;;3.70;99.90;;;;;;5076153;28;20071;-95
2022/02/12 04:42:31;;;;;;;55.63;27.15;;;3.70;99.90;;;;;;5075307;28;20025;-96
2022/02/12 04:44:57;;;;;;;57.10;28.50;;;3.70;99.90;;;;;;5075670;28;20035;-96
2022/02/12 04:47:23;;;;;;;57.30;28.67;;;3.70;99.90;;;;;;5075157;28;20124;-95
2022/02/12 04:49:50;;;;;;;51.35;26.92;;;3.70;99.90;;;;;;5075134;28;20031;-96
2022/02/12 04:52:18;;;;;;;57.03;28.08;;;3.80;99.90;;;;;;5074988;28;20116;-95
2022/02/12 04:54:44;;;;;;;50.30;26.30;;;3.80;99.90;;;;;;5075759;28;20528;-95
2022/02/12 04:57:10;;;;;;;50.97;25.58;;;3.80;99.90;;;;;;5075158;28;20075;-95
2022/02/12 04:59:36;;;;;;;51.25;26.05;;;3.90;99.90;;;;;;5074524;28;20459;-95
2022/02/12 05:02:03;;;;;;;51.55;26.33;;;3.90;99.90;;;;;;5074238;28;20020;-96
2022/02/12 05:04:28;;;;;;;56.00;26.77;;;3.90;99.90;;;;;;5074926;28;20417;-95
2022/02/12 05:06:54;;;;;;;49.85;26.70;;;3.90;99.90;;;;;;5074556;28;20026;-94
2022/02/12 05:09:20;;;;;;;52.42;26.90;;;3.90;99.90;;;;;;5074786;28;20025;-95
2022/02/12 05:11:47;;;;;;;52.72;26.00;;;3.90;99.90;;;;;;5074931;28;20021;-95
2022/02/12 05:14:13;;;;;;;44.58;23.75;;;3.90;99.90;;;;;;5075122;28;20027;-96
2022/02/12 05:16:39;;;;;;;50.95;24.83;;;4.00;99.90;;;;;;5074600;28;20028;-95
2022/02/12 05:19:05;;;;;;;45.53;22.90;;;3.90;99.90;;;;;;5074484;28;20161;-96
2022/02/12 05:21:31;;;;;;;41.50;22.00;;;4.00;99.90;;;;;;5074718;28;20051;-96
2022/02/12 05:23:58;;;;;;;43.40;22.80;;;4.00;99.90;;;;;;5074605;28;20020;-95
2022/02/12 05:26:24;;;;;;;41.30;21.75;;;4.00;99.90;;;;;;5075172;28;20029;-95
2022/02/12 05:28:50;;;;;;;57.67;22.70;;;4.00;99.90;;;;;;5074409;28;20024;-95
2022/02/12 05:31:16;;;;;;;48.55;20.23;;;4.00;99.90;;;;;;5074495;28;20035;-94
2022/02/12 05:33:41;;;;;;;55.58;22.35;;;4.00;99.90;;;;;;5074353;28;20020;-95
2022/02/12 05:36:08;;;;;;;38.40;20.33;;;4.00;99.90;;;;;;5074713;28;20496;-96
2022/02/12 05:38:44;;;;;;;37.42;19.27;;;4.10;99.90;;;;;;5074303;28;20490;-95
2022/02/12 05:41:12;;;;;;;31.55;17.35;;;4.10;99.90;;;;;;5074559;28;20082;-96
2022/02/12 05:43:38;;;;;;;34.75;17.92;;;4.10;99.90;;;;;;5074226;28;20029;-95
2022/02/12 05:46:05;;;;;;;29.10;16.65;;;4.10;99.90;;;;;;5074287;28;20386;-96
2022/02/12 05:48:33;;;;;;;33.85;17.92;;;4.10;99.90;;;;;;5073960;28;20471;-96
2022/02/12 05:50:59;;;;;;;35.15;18.67;;;4.10;99.90;;;;;;5074482;28;20029;-95
2022/02/12 05:53:25;;;;;;;39.22;20.38;;;4.10;99.90;;;;;;5074137;28;20112;-95
2022/02/12 05:55:51;;;;;;;34.75;18.00;;;4.10;99.90;;;;;;5073651;28;20483;-96
2022/02/12 05:58:18;;;;;;;33.53;16.52;;;4.10;99.90;;;;;;5074260;28;20029;-95
2022/02/12 06:00:44;;;;;;;27.98;16.38;;;4.10;99.90;;;;;;5073965;28;20021;-95
2022/02/12 06:03:10;;;;;;;28.52;15.48;;;4.10;99.90;;;;;;5074174;28;20021;-96
2022/02/12 06:05:36;;;;;;;26.55;15.95;;;4.10;99.90;;;;;;5073809;28;20102;-96
2022/02/12 15:07:14;;;;;;;12.88;5.32;;;1.90;99.90;;;;;;5092199;28;20367;-92
2022/02/12 15:09:39;;;;;;;10.60;5.50;;;2.00;99.90;;;;;;5091604;28;20051;-94
2022/02/12 15:12:05;;;;;;;7.63;4.82;;;2.10;99.90;;;;;;5090904;28;20024;-92
2022/02/12 15:14:33;;;;;;;10.55;5.68;;;2.10;99.90;;;;;;5090280;28;20028;-94
2022/02/12 15:16:59;;;;;;;12.98;5.30;;;2.20;99.90;;;;;;5091095;28;20029;-93
2022/02/12 15:19:25;;;;;;;15.55;7.40;;;2.20;99.90;;;;;;5090468;28;20052;-93
2022/02/12 15:21:51;;;;;;;14.93;6.60;;;2.30;99.90;;;;;;5090668;28;20044;-93
2022/02/12 15:24:17;;;;;;;8.55;5.50;;;2.40;99.90;;;;;;5090688;28;20024;-94
2022/02/12 15:26:43;;;;;;;8.85;5.50;;;2.40;99.90;;;;;;5090621;28;20082;-94
2022/02/12 15:29:09;;;;;;;16.63;10.25;;;2.50;99.90;;;;;;5090452;28;20024;-93
2022/02/12 15:31:35;;;;;;;219.90;151.55;;;2.40;99.90;;;;;;5090830;28;20024;-93
2022/02/12 15:34:01;;;;;;;13.63;7.13;;;2.40;99.90;;;;;;5090956;28;20479;-90
2022/02/12 15:36:27;;;;;;;12.27;5.68;;;2.40;99.90;;;;;;5090638;28;20029;-92
2022/02/12 15:38:53;;;;;;;12.15;6.22;;;2.30;99.90;;;;;;5090320;28;20462;-93
2022/02/12 15:41:20;;;;;;;9.10;5.38;;;2.30;99.90;;;;;;5090727;28;20031;-91
2022/02/12 15:43:51;;;;;;;13.35;7.43;;;2.30;99.90;;;;;;5091847;28;20020;-96
2022/02/12 15:46:17;;;;;;;10.90;6.45;;;2.30;99.90;;;;;;5090952;28;20094;-96
2022/02/12 15:48:43;;;;;;;14.50;7.10;;;2.30;99.90;;;;;;5092562;28;20054;-94
2022/02/12 15:51:09;;;;;;;13.60;7.50;;;2.30;99.90;;;;;;5091374;28;20390;-92
2022/02/12 15:53:35;;;;;;;16.38;8.00;;;2.20;99.90;;;;;;5092994;28;20018;-94
2022/02/12 15:56:06;;;;;;;22.05;13.07;;;2.20;99.90;;;;;;5093238;28;20024;-96
2022/02/12 15:58:41;;;;;;;16.40;7.18;;;2.20;99.90;;;;;;5095774;28;20035;-96
2022/02/12 16:01:24;;;;;;;33.10;10.45;;;2.10;99.90;;;;;;5094944;28;20046;-96
2022/02/12 16:03:50;;;;;;;56.38;14.15;;;2.10;99.90;;;;;;5096984;28;20077;-94
2022/02/12 16:06:32;;;;;;;78.97;19.00;;;2.10;99.90;;;;;;5094101;28;20405;-96
2022/02/12 16:08:58;;;;;;;48.67;13.90;;;2.10;99.90;;;;;;5094728;28;20028;-96
2022/02/12 16:11:24;;;;;;;23.35;9.73;;;2.10;99.90;;;;;;5091438;28;20382;-96
2022/02/12 16:13:49;;;;;;;13.27;7.43;;;2.10;99.90;;;;;;5090026;28;20077;-94
2022/02/12 16:16:15;;;;;;;16.58;8.02;;;2.10;99.90;;;;;;5091360;28;20115;-96
2022/02/12 16:18:41;;;;;;;13.13;8.23;;;2.10;99.90;;;;;;5076786;28;20031;-94
2022/02/12 16:21:07;;;;;;;23.60;12.88;;;2.00;99.90;;;;;;5077036;28;20024;-93
2022/02/12 16:23:33;;;;;;;173.90;111.13;;;2.00;99.90;;;;;;5076016;28;20082;-94
2022/02/12 16:25:59;;;;;;;24.83;15.77;;;2.00;99.90;;;;;;5076474;28;20124;-94
2022/02/12 16:28:25;;;;;;;30.08;16.23;;;2.00;99.90;;;;;;5076339;28;20058;-93
2022/02/12 16:30:53;;;;;;;226.18;132.93;;;1.90;99.90;;;;;;5077963;28;20024;-96
2022/02/12 16:33:23;;;;;;;31.35;15.77;;;1.90;99.90;;;;;;5076730;28;20017;-96
2022/02/12 16:35:50;;;;;;;149.65;93.97;;;1.90;99.90;;;;;;5077173;28;20475;-95
2022/02/12 16:38:19;;;;;;;82.53;47.33;;;1.90;99.90;;;;;;5077251;28;20501;-95
2022/02/12 16:40:45;;;;;;;143.23;81.00;;;1.80;99.90;;;;;;5077303;28;20031;-96
2022/02/12 16:43:11;;;;;;;55.15;28.77;;;1.80;99.90;;;;;;5076406;28;20024;-92
2022/02/12 16:45:36;;;;;;;13.65;7.50;;;1.80;99.90;;;;;;5076227;28;20074;-96
2022/02/12 16:48:02;;;;;;;18.95;10.25;;;1.70;99.90;;;;;;5075843;28;20082;-94
2022/02/12 16:50:31;;;;;;;53.22;24.88;;;1.70;99.90;;;;;;5077169;28;20020;-96
2022/02/12 16:52:57;;;;;;;73.07;37.17;;;1.60;99.90;;;;;;5077089;28;20044;-96
2022/02/12 16:55:30;;;;;;;65.60;29.58;;;1.60;99.90;;;;;;5076654;28;20031;-95
2022/02/12 16:57:57;;;;;;;117.72;56.47;;;1.60;99.90;;;;;;5076941;28;20028;-93
2022/02/12 17:00:24;;;;;;;22.05;11.73;;;1.60;99.90;;;;;;5075277;28;20027;-92
2022/02/12 17:02:51;;;;;;;240.48;106.97;;;1.50;99.90;;;;;;5075010;28;20085;-94
2022/02/12 17:05:20;;;;;;;146.20;80.47;;;1.50;99.90;;;;;;5069954;28;20041;-94
2022/02/12 17:07:46;;;;;;;139.32;65.30;;;1.50;99.90;;;;;;5038324;28;20455;-93
2022/02/12 17:10:12;;;;;;;27.75;14.23;;;1.40;99.90;;;;;;5038415;28;20032;-93
2022/02/12 17:12:38;;;;;;;48.67;21.33;;;1.40;99.90;;;;;;5038301;28;20114;-93
2022/02/12 17:15:07;;;;;;;42.25;19.80;;;1.40;99.90;;;;;;5038318;28;20025;-93
2022/02/12 17:17:34;;;;;;;20.60;8.48;;;1.40;99.90;;;;;;5038139;28;20028;-95
2022/02/12 17:20:01;;;;;;;67.25;29.42;;;1.40;99.90;;;;;;5038534;28;20521;-96
2022/02/12 17:22:26;;;;;;;133.40;71.20;;;1.40;99.90;;;;;;5038042;28;20128;-95
2022/02/12 17:24:52;;;;;;;22.88;13.15;;;1.30;99.90;;;;;;5038179;28;20052;-96
2022/02/12 17:27:21;;;;;;;20.45;10.93;;;1.30;99.90;;;;;;5039593;28;20364;-96
2022/02/12 17:30:00;;;;;;;26.85;15.90;;;1.30;99.90;;;;;;5037776;28;20024;-96
2022/02/12 17:32:27;;;;;;;42.53;20.50;;;1.20;99.90;;;;;;5038804;28;20120;-95
2022/02/12 17:34:53;;;;;;;40.53;19.98;;;1.20;99.90;;;;;;5038490;28;20021;-94
2022/02/12 17:37:20;;;;;;;28.13;14.93;;;1.20;99.90;;;;;;5039036;28;20021;-94
2022/02/12 17:39:46;;;;;;;48.17;24.08;;;1.20;99.90;;;;;;5039405;28;20021;-93
2022/02/12 17:42:12;;;;;;;40.70;18.38;;;1.20;99.90;;;;;;5038383;28;20025;-94
2022/02/12 17:44:38;;;;;;;19.17;10.50;;;1.20;99.90;;;;;;5038184;28;20029;-93
2022/02/12 17:47:04;;;;;;;15.82;9.75;;;1.10;99.90;;;;;;5037699;28;20147;-92
2022/02/12 17:49:30;;;;;;;48.97;23.25;;;1.20;99.90;;;;;;5037611;28;20138;-92
2022/02/12 17:51:57;;;;;;;26.48;11.10;;;1.10;99.90;;;;;;5037569;28;20032;-92
2022/02/12 17:54:22;;;;;;;19.05;10.40;;;1.10;99.90;;;;;;5037405;28;20048;-92
2022/02/12 17:56:48;;;;;;;23.45;9.93;;;1.10;99.90;;;;;;5037388;28;20110;-92
2022/02/12 17:59:14;;;;;;;45.65;20.30;;;1.10;99.90;;;;;;5037687;28;20175;-93
2022/02/12 18:01:40;;;;;;;30.42;14.65;;;1.00;99.90;;;;;;5037916;28;20024;-91
2022/02/12 18:04:06;;;;;;;42.45;16.75;;;1.00;99.90;;;;;;5037050;28;20052;-93
2022/02/12 18:06:32;;;;;;;16.73;8.30;;;1.00;99.90;;;;;;5037126;28;20087;-92
2022/02/12 18:11:42;;;;;;;29.30;14.35;;;0.90;99.90;;;;;;5055408;28;20032;-92
2022/02/12 18:14:10;;;;;;;25.17;12.50;;;0.90;99.90;;;;;;5036914;28;20459;-92
2022/02/12 18:16:36;;;;;;;20.23;11.00;;;0.90;99.90;;;;;;5036829;28;20037;-92
2022/02/12 18:19:02;;;;;;;15.02;7.60;;;0.80;99.90;;;;;;5036943;28;20031;-93
2022/02/12 18:21:28;;;;;;;18.48;9.93;;;0.80;99.90;;;;;;5037150;28;20025;-92
2022/02/12 18:23:54;;;;;;;15.85;9.68;;;0.80;99.90;;;;;;5036933;28;20098;-93
2022/02/12 18:26:20;;;;;;;15.05;8.05;;;0.80;99.90;;;;;;5036972;28;20029;-91
2022/02/12 18:28:46;;;;;;;16.67;8.60;;;0.80;99.90;;;;;;5036908;28;20025;-92
2022/02/12 18:31:13;;;;;;;12.43;7.10;;;0.70;99.90;;;;;;5036767;28;20029;-93
2022/02/12 18:33:39;;;;;;;13.05;7.20;;;0.70;99.90;;;;;;5036648;28;20028;-92
2022/02/12 18:36:06;;;;;;;16.92;9.90;;;0.60;99.90;;;;;;5036481;28;20029;-92
2022/02/12 18:38:32;;;;;;;15.38;7.57;;;0.60;99.90;;;;;;5037033;28;20029;-92
2022/02/12 18:41:00;;;;;;;14.98;7.40;;;0.60;99.90;;;;;;5036767;28;20444;-92
2022/02/12 18:43:26;;;;;;;18.52;9.10;;;0.60;99.90;;;;;;5036646;28;20045;-93
2022/02/12 18:45:51;;;;;;;17.20;8.02;;;0.60;99.90;;;;;;5036510;28;20063;-93
2022/02/12 18:48:17;;;;;;;18.75;8.48;;;0.60;99.90;;;;;;5036818;28;20446;-92
2022/02/12 18:50:43;;;;;;;14.63;7.55;;;0.50;99.90;;;;;;5037567;28;20032;-94
2022/02/12 18:53:08;;;;;;;25.25;12.52;;;0.50;99.90;;;;;;5038310;28;20051;-92
2022/02/12 18:55:34;;;;;;;58.60;30.92;;;0.50;99.90;;;;;;5024053;28;20029;-92
2022/02/12 18:58:01;;;;;;;21.63;10.07;;;0.50;99.90;;;;;;5036454;28;20028;-90
2022/02/12 19:00:27;;;;;;;17.73;9.52;;;0.50;99.90;;;;;;5036471;28;20177;-90
2022/02/12 19:02:53;;;;;;;13.65;8.15;;;0.50;99.90;;;;;;5036436;28;20128;-90
2022/02/12 19:05:19;;;;;;;26.30;14.13;;;0.40;99.90;;;;;;5035743;28;20076;-89
2022/02/12 19:07:45;;;;;;;20.13;9.70;;;0.40;99.90;;;;;;5036555;28;20131;-88
2022/02/12 19:10:11;;;;;;;20.52;10.15;;;0.40;99.90;;;;;;5036377;28;20037;-91
2022/02/12 19:12:37;;;;;;;13.88;7.55;;;0.40;99.90;;;;;;5036088;28;20029;-93
2022/02/12 19:15:04;;;;;;;17.35;8.35;;;0.30;99.90;;;;;;5037104;28;20028;-94
2022/02/12 19:17:30;;;;;;;17.25;7.75;;;0.30;99.90;;;;;;5036493;28;20021;-92
2022/02/12 19:19:57;;;;;;;15.75;8.73;;;0.30;99.90;;;;;;5036265;28;20029;-93
2022/02/12 19:22:23;;;;;;;17.88;8.38;;;0.20;99.90;;;;;;5036433;28;20379;-93
2022/02/12 19:24:50;;;;;;;20.23;8.20;;;0.20;99.90;;;;;;5036044;28;20017;-93
2022/02/12 19:27:18;;;;;;;16.17;8.27;;;0.20;99.90;;;;;;5036396;28;20021;-93
2022/02/12 19:29:44;;;;;;;15.23;8.05;;;0.10;99.90;;;;;;5036960;28;20025;-93
2022/02/12 19:32:09;;;;;;;13.93;7.63;;;0.10;99.90;;;;;;5035532;28;20060;-93
2022/02/12 19:35:05;;;;;;;19.95;9.68;;;0.10;99.90;;;;;;5036137;28;20021;-93
2022/02/12 19:37:33;;;;;;;19.67;8.82;;;0.00;99.90;;;;;;5012387;28;20064;-93
2022/02/12 19:39:58;;;;;;;27.25;12.77;;;0.00;99.90;;;;;;5016458;28;20088;-93
2022/02/12 19:42:24;;;;;;;21.05;10.75;;;0.00;99.90;;;;;;5016288;28;20040;-93
2022/02/12 19:44:54;;;;;;;25.55;12.02;;;-0.10;99.90;;;;;;5016637;28;20025;-93
2022/02/12 19:47:21;;;;;;;26.02;12.18;;;-0.10;99.90;;;;;;5016267;28;20030;-93
2022/02/12 19:49:47;;;;;;;26.45;12.10;;;-0.10;99.90;;;;;;5017324;28;20033;-93
2022/02/12 19:52:12;;;;;;;23.95;11.40;;;-0.10;99.90;;;;;;5017099;28;20022;-93
2022/02/12 19:54:40;;;;;;;23.02;10.90;;;-0.10;99.90;;;;;;5019959;28;20025;-93
2022/02/12 19:57:06;;;;;;;28.38;11.50;;;-0.10;99.90;;;;;;5020065;28;20103;-93
2022/02/12 19:59:32;;;;;;;29.45;10.93;;;-0.20;99.90;;;;;;5019888;28;20053;-93
2022/02/12 20:01:58;;;;;;;29.75;10.63;;;-0.20;99.90;;;;;;5019591;28;20387;-93
2022/02/12 20:04:24;;;;;;;26.63;9.50;;;-0.20;99.90;;;;;;5020891;28;20018;-93
2022/02/12 20:06:51;;;;;;;27.88;10.73;;;-0.20;99.90;;;;;;5035794;28;20045;-92
2022/02/12 20:09:16;;;;;;;26.98;10.77;;;-0.20;99.90;;;;;;5036110;28;20064;-93
2022/02/12 20:11:44;;;;;;;20.83;8.95;;;-0.20;99.90;;;;;;5036132;28;20379;-94
2022/02/12 20:14:10;;;;;;;18.63;8.35;;;-0.30;99.90;;;;;;5036845;28;20084;-94
2022/02/12 20:16:36;;;;;;;16.10;7.32;;;-0.30;99.90;;;;;;5036027;28;20029;-95
2022/02/12 20:19:03;;;;;;;15.52;7.72;;;-0.30;99.90;;;;;;5039008;28;20024;-93
2022/02/12 20:21:29;;;;;;;16.15;7.68;;;-0.30;99.90;;;;;;5040166;28;20029;-93
2022/02/12 20:23:54;;;;;;;17.88;8.30;;;-0.30;99.90;;;;;;5039651;28;20529;-94
2022/02/12 20:26:20;;;;;;;17.00;8.15;;;-0.30;99.90;;;;;;5039280;28;20467;-94
2022/02/12 20:28:47;;;;;;;15.63;8.40;;;-0.40;99.90;;;;;;5039183;28;20075;-93
2022/02/12 20:31:13;;;;;;;15.30;8.13;;;-0.40;99.90;;;;;;5039104;28;20025;-93
2022/02/12 20:33:40;;;;;;;16.60;7.43;;;-0.30;99.90;;;;;;5039316;28;20035;-94
2022/02/12 20:36:07;;;;;;;13.40;7.05;;;-0.40;99.90;;;;;;5038957;28;20139;-93
2022/02/12 20:38:33;;;;;;;12.35;6.95;;;-0.40;99.90;;;;;;5038917;28;20031;-94
2022/02/12 20:40:58;;;;;;;13.93;7.25;;;-0.30;99.90;;;;;;5033256;28;20476;-94
2022/02/12 20:43:25;;;;;;;18.88;8.30;;;-0.40;99.90;;;;;;5003210;28;20048;-94
2022/02/12 20:45:51;;;;;;;13.27;7.43;;;-0.40;99.90;;;;;;5019125;28;20025;-94
2022/02/12 20:48:17;;;;;;;14.48;7.32;;;-0.40;99.90;;;;;;5018946;28;20028;-93
2022/02/12 20:50:44;;;;;;;15.27;7.82;;;-0.40;99.90;;;;;;5019646;28;20026;-94
2022/02/12 20:53:10;;;;;;;16.60;7.55;;;-0.40;99.90;;;;;;5018781;28;20063;-93
2022/02/12 20:55:36;;;;;;;14.65;7.40;;;-0.40;99.90;;;;;;5022915;28;20070;-93
2022/02/12 20:58:01;;;;;;;15.43;7.22;;;-0.40;99.90;;;;;;5038547;28;20139;-93
2022/02/12 21:00:27;;;;;;;14.15;8.10;;;-0.40;99.90;;;;;;5039350;28;20111;-93
2022/02/12 21:02:53;;;;;;;17.98;9.50;;;-0.40;99.90;;;;;;5038374;28;20471;-93
2022/02/12 21:05:19;;;;;;;16.15;8.80;;;-0.40;99.90;;;;;;5038462;28;20063;-94
2022/02/12 21:07:45;;;;;;;19.70;8.50;;;-0.50;99.90;;;;;;5038250;28;20045;-94
2022/02/12 21:10:11;;;;;;;14.65;8.45;;;-0.50;99.90;;;;;;5037768;28;20051;-93
2022/02/12 21:12:37;;;;;;;19.35;9.95;;;-0.60;99.90;;;;;;5038789;28;20025;-94
2022/02/12 21:15:04;;;;;;;23.23;11.45;;;-0.60;99.90;;;;;;5038428;28;20067;-93
2022/02/12 21:17:30;;;;;;;47.83;18.70;;;-0.60;99.90;;;;;;5038423;28;20087;-93
2022/02/12 21:19:55;;;;;;;63.00;22.15;;;-0.60;99.90;;;;;;5038461;28;20024;-94
2022/02/12 21:22:23;;;;;;;48.85;17.92;;;-0.70;99.90;;;;;;5038800;28;20074;-94
2022/02/12 21:24:49;;;;;;;52.83;18.75;;;-0.70;99.90;;;;;;5038124;28;20021;-94
2022/02/12 21:27:15;;;;;;;26.70;13.45;;;-0.70;99.90;;;;;;5038247;28;20458;-94
2022/02/12 21:29:41;;;;;;;22.88;9.98;;;-0.80;99.90;;;;;;5037884;28;20391;-93
2022/02/12 21:32:07;;;;;;;20.88;9.65;;;-0.80;99.90;;;;;;5038022;28;20032;-94
2022/02/12 21:34:34;;;;;;;16.33;8.95;;;-0.80;99.90;;;;;;5037875;28;20021;-93
2022/02/12 21:37:02;;;;;;;18.20;9.25;;;-0.80;99.90;;;;;;5037974;28;20029;-93
2022/02/12 21:39:28;;;;;;;20.48;8.88;;;-0.80;99.90;;;;;;5037820;28;20028;-93
2022/02/12 21:41:54;;;;;;;17.83;9.32;;;-0.90;99.90;;;;;;5031992;28;20049;-93
2022/02/12 21:44:20;;;;;;;18.25;9.68;;;-0.90;99.90;;;;;;5017978;28;20057;-94